createdAt,value
2022-12-22T00:02:35.991Z,17.38
2022-12-22T00:05:25.344Z,15.25
2022-12-22T00:08:11.550Z,14.90
2022-12-22T00:10:57.929Z,16.17
2022-12-22T00:13:44.034Z,12.70
2022-12-22T00:16:31.875Z,16.27
2022-12-22T00:19:17.882Z,16.33
2022-12-22T00:22:04.010Z,13.38
2022-12-22T00:24:49.919Z,12.80
2022-12-22T00:27:40.060Z,17.45
2022-12-22T00:30:31.975Z,15.30
2022-12-22T00:33:19.965Z,12.45
2022-12-22T00:36:05.824Z,12.45
2022-12-22T00:38:51.928Z,13.57
2022-12-22T00:41:37.973Z,14.63
2022-12-22T00:44:23.906Z,15.93
2022-12-22T00:47:10.250Z,15.35
2022-12-22T00:49:58.852Z,14.05
2022-12-22T00:52:45.039Z,14.68
2022-12-22T00:55:32.707Z,14.02
2022-12-22T00:58:19.289Z,13.93
2022-12-22T01:01:05.436Z,11.88
2022-12-22T01:03:51.662Z,14.20
2022-12-22T01:06:39.344Z,12.05
2022-12-22T01:09:25.406Z,16.30
2022-12-22T01:12:11.609Z,15.07
2022-12-22T01:14:57.541Z,13.43
2022-12-22T01:17:43.798Z,13.52
2022-12-22T01:20:30.531Z,14.43
2022-12-22T01:23:18.051Z,15.13
2022-12-22T01:26:03.951Z,14.43
2022-12-22T01:28:50.114Z,20.55
2022-12-22T01:31:38.184Z,13.38
2022-12-22T01:34:24.306Z,13.88
2022-12-22T01:37:10.497Z,13.75
2022-12-22T01:39:58.047Z,11.95
2022-12-22T01:42:44.740Z,15.48
2022-12-22T01:45:37.404Z,13.02
2022-12-22T01:48:23.465Z,13.15
2022-12-22T01:51:09.379Z,13.82
2022-12-22T01:53:55.328Z,11.73
2022-12-22T01:56:42.662Z,12.27
2022-12-22T01:59:28.958Z,14.40
2022-12-22T02:02:15.475Z,11.63
2022-12-22T02:05:03.051Z,13.10
2022-12-22T02:08:06.662Z,12.88
2022-12-22T02:11:02.208Z,11.88
2022-12-22T02:13:53.591Z,12.95
2022-12-22T02:16:42.979Z,12.20
2022-12-22T02:19:32.524Z,10.18
2022-12-22T02:22:23.429Z,12.68
2022-12-22T02:25:12.527Z,10.35
2022-12-22T02:28:00.902Z,10.38
2022-12-22T02:30:48.022Z,11.70
2022-12-22T02:33:34.025Z,9.57
2022-12-22T02:36:23.174Z,10.00
2022-12-22T02:39:14.260Z,9.82
2022-12-22T02:42:03.095Z,9.88
2022-12-22T02:44:57.998Z,9.63
2022-12-22T02:47:47.149Z,12.18
2022-12-22T02:50:37.200Z,9.82
2022-12-22T02:53:25.374Z,9.20
2022-12-22T02:56:16.885Z,9.27
2022-12-22T02:59:02.783Z,9.02
2022-12-22T03:01:50.365Z,11.43
2022-12-22T03:04:36.386Z,10.60
2022-12-22T03:07:22.431Z,10.10
2022-12-22T03:10:08.740Z,9.82
2022-12-22T03:12:54.708Z,10.43
2022-12-22T03:15:41.016Z,9.38
2022-12-22T03:18:29.293Z,9.52
2022-12-22T03:21:15.804Z,8.55
2022-12-22T03:24:01.997Z,8.18
2022-12-22T03:26:30.846Z,7.75
2022-12-22T03:28:59.216Z,8.82
2022-12-22T03:31:27.855Z,9.52
2022-12-22T03:33:57.713Z,7.63
2022-12-22T03:36:26.123Z,8.10
2022-12-22T03:38:54.482Z,6.93
2022-12-22T03:41:40.519Z,7.18
2022-12-22T03:44:22.920Z,8.68
2022-12-22T03:46:51.331Z,6.43
2022-12-22T03:49:22.456Z,5.85
2022-12-22T03:51:51.706Z,6.32
2022-12-22T03:54:21.381Z,8.35
2022-12-22T03:56:50.521Z,5.45
2022-12-22T03:59:19.272Z,4.75
2022-12-22T04:01:48.800Z,5.30
2022-12-22T04:04:18.408Z,4.25
2022-12-22T04:06:49.242Z,5.35
2022-12-22T04:09:17.628Z,5.05
2022-12-22T04:12:03.784Z,4.82
2022-12-22T04:14:34.533Z,4.63
2022-12-22T04:17:03.504Z,7.15
2022-12-22T04:19:31.945Z,4.68
2022-12-22T04:22:01.820Z,5.78
2022-12-22T04:24:30.219Z,4.10
2022-12-22T04:26:58.611Z,4.45
2022-12-22T04:29:27.034Z,3.40
2022-12-22T04:31:55.429Z,5.70
2022-12-22T04:34:23.864Z,3.72
2022-12-22T04:36:52.336Z,4.22
2022-12-22T04:39:22.073Z,5.15
2022-12-22T04:41:50.450Z,5.05
2022-12-22T04:44:18.810Z,5.53
2022-12-22T04:46:47.560Z,5.53
2022-12-22T04:49:15.902Z,4.38
2022-12-22T04:51:44.348Z,4.22
2022-12-22T04:54:12.913Z,4.65
2022-12-22T04:56:42.676Z,5.07
2022-12-22T04:59:11.060Z,4.20
2022-12-22T05:01:39.602Z,5.72
2022-12-22T05:04:08.089Z,4.38
2022-12-22T05:06:36.497Z,5.13
2022-12-22T05:09:04.865Z,6.78
2022-12-22T05:11:33.246Z,7.68
2022-12-22T05:14:07.200Z,5.10
2022-12-22T05:16:36.149Z,4.80
2022-12-22T05:19:04.713Z,7.88
2022-12-22T05:21:33.101Z,6.43
2022-12-22T05:24:01.523Z,7.22
2022-12-22T05:26:29.896Z,6.90
2022-12-22T05:28:58.289Z,7.57
2022-12-22T05:31:28.437Z,6.97
2022-12-22T05:33:56.943Z,6.65
2022-12-22T05:36:25.360Z,7.22
2022-12-22T05:38:53.750Z,7.93
2022-12-22T05:41:22.115Z,6.93
2022-12-22T05:43:52.878Z,7.95
2022-12-22T05:46:22.586Z,7.30
2022-12-22T05:48:52.441Z,8.10
2022-12-22T05:51:20.789Z,11.13
2022-12-22T05:53:49.216Z,8.85
2022-12-22T05:56:17.581Z,8.13
2022-12-22T05:58:46.045Z,7.65
2022-12-22T06:01:14.431Z,9.38
2022-12-22T06:03:42.993Z,8.80
2022-12-22T06:06:12.910Z,9.57
2022-12-22T06:08:41.381Z,9.80
2022-12-22T06:11:09.837Z,8.60
2022-12-22T06:13:38.222Z,9.07
2022-12-22T06:16:07.043Z,10.63
2022-12-22T06:18:35.561Z,10.20
2022-12-22T06:21:04.025Z,11.30
2022-12-22T06:23:33.960Z,11.82
2022-12-22T06:26:03.210Z,12.30
2022-12-22T06:28:31.843Z,12.57
2022-12-22T06:31:00.300Z,13.32
2022-12-22T06:35:59.716Z,15.77
2022-12-22T06:38:28.799Z,14.90
2022-12-22T06:40:57.511Z,15.93
2022-12-22T06:43:25.193Z,15.30
2022-12-22T06:45:54.070Z,20.13
2022-12-22T06:48:22.658Z,17.42
2022-12-22T06:50:51.381Z,15.95
2022-12-22T06:53:21.160Z,17.02
2022-12-22T06:55:49.758Z,15.52
2022-12-22T06:58:18.140Z,15.10
2022-12-22T07:00:48.662Z,17.38
2022-12-22T07:03:17.614Z,15.60
2022-12-22T07:05:46.251Z,14.98
2022-12-22T07:08:14.625Z,15.48
2022-12-22T07:10:59.482Z,15.18
2022-12-22T07:13:28.744Z,16.15
2022-12-22T07:16:00.986Z,20.00
2022-12-22T07:18:30.646Z,16.17
2022-12-22T07:20:59.313Z,19.13
2022-12-22T07:23:27.975Z,17.15
2022-12-22T07:25:57.759Z,17.17
2022-12-22T07:28:26.685Z,18.50
2022-12-22T07:30:57.051Z,20.08
2022-12-22T07:33:25.517Z,20.48
2022-12-22T07:36:02.709Z,19.40
2022-12-22T07:38:31.141Z,19.98
2022-12-22T07:41:04.818Z,19.23
2022-12-22T07:43:32.810Z,19.45
2022-12-22T07:46:01.336Z,21.17
2022-12-22T07:48:47.682Z,20.38
2022-12-22T07:51:16.026Z,19.23
2022-12-22T07:53:44.453Z,22.23
2022-12-22T07:56:14.225Z,24.65
2022-12-22T07:58:42.597Z,25.15
2022-12-22T08:01:11.013Z,23.48
2022-12-22T08:03:39.424Z,25.08
2022-12-22T08:06:08.363Z,27.40
2022-12-22T08:08:36.847Z,28.05
2022-12-22T08:11:05.343Z,25.77
2022-12-22T08:13:35.177Z,26.30
2022-12-22T08:16:07.136Z,28.63
2022-12-22T08:18:36.189Z,27.85
2022-12-22T08:21:05.777Z,29.45
2022-12-22T08:23:34.965Z,30.20
2022-12-22T08:26:07.280Z,31.45
2022-12-22T08:28:40.336Z,36.53
2022-12-22T08:31:09.532Z,34.47
2022-12-22T08:33:38.681Z,35.33
2022-12-22T08:36:08.638Z,38.33
2022-12-22T08:38:37.858Z,38.13
2022-12-22T08:41:06.892Z,37.90
2022-12-22T08:43:36.878Z,40.70
2022-12-22T08:46:05.624Z,38.80
2022-12-22T08:48:34.183Z,45.15
2022-12-22T08:51:02.713Z,39.53
2022-12-22T08:54:03.176Z,44.53
2022-12-22T08:56:19.809Z,39.58
2022-12-22T08:58:49.659Z,36.72
2022-12-22T09:01:19.002Z,40.17
2022-12-22T09:03:50.697Z,39.40
2022-12-22T09:06:21.518Z,42.90
2022-12-22T09:08:55.974Z,45.10
2022-12-22T09:11:24.694Z,39.50
2022-12-22T09:13:55.765Z,42.72
2022-12-22T09:16:25.047Z,40.22
2022-12-22T09:18:53.726Z,39.15
2022-12-22T09:21:22.190Z,39.35
2022-12-22T09:23:50.951Z,34.97
2022-12-22T09:26:20.506Z,34.10
2022-12-22T09:28:50.806Z,30.08
2022-12-22T09:31:22.004Z,29.20
2022-12-22T09:33:50.869Z,29.17
2022-12-22T09:36:20.644Z,30.75
2022-12-22T09:38:49.148Z,30.85
2022-12-22T09:41:18.735Z,31.20
2022-12-22T09:43:47.583Z,27.23
2022-12-22T09:46:20.833Z,27.20
2022-12-22T09:48:50.707Z,30.40
2022-12-22T09:51:26.123Z,30.38
2022-12-22T09:53:56.599Z,38.33
2022-12-22T09:56:25.528Z,32.30
2022-12-22T09:58:54.103Z,32.03
2022-12-22T10:01:30.828Z,35.25
2022-12-22T10:04:05.125Z,37.35
2022-12-22T10:06:37.046Z,34.42
2022-12-22T10:09:21.594Z,37.53
2022-12-22T10:11:55.140Z,38.05
2022-12-22T10:14:27.093Z,38.40
2022-12-22T10:17:15.909Z,35.75
2022-12-22T10:19:46.028Z,38.20
2022-12-22T10:22:21.573Z,41.63
2022-12-22T10:24:50.006Z,40.60
2022-12-22T10:27:21.009Z,42.47
2022-12-22T10:29:53.233Z,43.58
2022-12-22T10:32:22.782Z,43.17
2022-12-22T10:35:03.762Z,42.40
2022-12-22T10:37:34.449Z,41.45
2022-12-22T10:40:14.991Z,44.35
2022-12-22T10:42:46.088Z,39.80
2022-12-22T10:45:18.813Z,38.90
2022-12-22T10:47:49.348Z,40.53
2022-12-22T10:50:19.606Z,37.45
2022-12-22T10:52:53.063Z,36.17
2022-12-22T10:55:22.457Z,27.30
2022-12-22T10:57:51.251Z,27.77
2022-12-22T11:00:29.278Z,22.63
2022-12-22T11:02:59.002Z,23.35
2022-12-22T11:05:29.199Z,23.85
2022-12-22T11:08:00.741Z,25.50
2022-12-22T11:10:32.967Z,28.17
2022-12-22T11:13:10.790Z,25.55
2022-12-22T11:15:43.475Z,24.35
2022-12-22T11:18:20.965Z,27.05
2022-12-22T11:20:57.063Z,25.58
2022-12-22T11:23:31.262Z,21.48
2022-12-22T11:26:05.069Z,19.58
2022-12-22T11:28:51.200Z,18.25
2022-12-22T11:31:25.138Z,19.95
2022-12-22T11:34:00.391Z,22.17
2022-12-22T11:36:35.449Z,26.45
2022-12-22T11:39:06.447Z,20.83
2022-12-22T11:41:42.498Z,24.83
2022-12-22T11:44:26.391Z,24.15
2022-12-22T11:46:56.450Z,21.83
2022-12-22T11:49:34.289Z,21.15
2022-12-22T11:52:09.615Z,15.27
2022-12-22T11:54:59.536Z,20.02
2022-12-22T11:57:30.845Z,14.82
2022-12-22T12:00:03.266Z,15.88
2022-12-22T12:02:52.757Z,15.88
2022-12-22T12:05:36.894Z,18.83
2022-12-22T12:08:11.856Z,16.92
2022-12-22T12:10:45.498Z,16.75
2022-12-22T12:13:25.623Z,16.23
2022-12-22T12:15:58.106Z,15.15
2022-12-22T12:18:41.517Z,17.95
2022-12-22T12:21:21.376Z,19.52
2022-12-22T12:23:57.301Z,18.80
2022-12-22T12:26:27.585Z,19.92
2022-12-22T12:29:02.658Z,18.85
2022-12-22T12:31:34.429Z,16.48
2022-12-22T12:34:04.150Z,19.77
2022-12-22T12:36:38.461Z,20.75
2022-12-22T12:39:12.654Z,20.63
2022-12-22T12:41:47.162Z,18.85
2022-12-22T12:44:18.134Z,20.10
2022-12-22T12:46:57.302Z,22.42
2022-12-22T12:49:45.793Z,25.65
2022-12-22T12:52:14.267Z,19.63
2022-12-22T12:54:44.509Z,21.30
2022-12-22T12:57:27.988Z,21.77
2022-12-22T12:59:57.108Z,22.30
2022-12-22T13:02:36.149Z,26.08
2022-12-22T13:05:36.594Z,26.20
2022-12-22T13:08:29.651Z,23.52
2022-12-22T13:12:01.212Z,27.73
2022-12-22T13:14:34.768Z,26.23
2022-12-22T13:17:18.174Z,23.83
2022-12-22T13:19:49.238Z,25.08
2022-12-22T13:22:17.876Z,23.23
2022-12-22T13:24:49.110Z,21.08
2022-12-22T13:27:18.185Z,18.33
2022-12-22T13:29:49.268Z,17.98
2022-12-22T13:32:21.159Z,19.55
2022-12-22T13:37:43.871Z,15.82
2022-12-22T13:40:14.368Z,15.80
2022-12-22T13:42:44.221Z,16.63
2022-12-22T13:45:22.156Z,14.90
2022-12-22T13:47:50.888Z,16.98
2022-12-22T13:50:20.786Z,14.75
2022-12-22T13:52:49.798Z,17.17
2022-12-22T13:55:20.310Z,16.77
2022-12-22T13:57:52.127Z,17.02
2022-12-22T14:00:27.721Z,13.88
2022-12-22T14:02:56.263Z,17.55
2022-12-22T14:05:24.858Z,16.38
2022-12-22T14:08:00.373Z,14.00
2022-12-22T14:10:29.786Z,16.30
2022-12-22T14:12:58.334Z,14.55
2022-12-22T14:15:28.111Z,17.90
2022-12-22T14:17:56.513Z,16.80
2022-12-22T14:20:28.089Z,16.75
2022-12-22T14:22:58.133Z,15.18
2022-12-22T14:25:29.137Z,15.80
2022-12-22T14:27:58.223Z,18.40
2022-12-22T14:30:34.682Z,16.20
2022-12-22T14:33:20.207Z,13.52
2022-12-22T14:35:48.616Z,15.73
2022-12-22T14:38:23.800Z,17.63
2022-12-22T14:40:56.802Z,16.70
2022-12-22T14:43:30.677Z,16.75
2022-12-22T14:46:08.634Z,18.63
2022-12-22T14:48:38.659Z,16.25
2022-12-22T14:51:07.281Z,17.90
2022-12-22T14:53:39.514Z,14.75
2022-12-22T14:56:12.519Z,17.02
2022-12-22T14:58:41.734Z,17.15
2022-12-22T15:01:16.674Z,17.92
2022-12-22T15:03:45.685Z,15.00
2022-12-22T15:06:34.442Z,14.85
2022-12-22T15:09:12.626Z,14.43
2022-12-22T15:11:42.108Z,14.48
2022-12-22T15:14:13.455Z,13.85
2022-12-22T15:16:43.597Z,13.35
2022-12-22T15:19:13.024Z,13.15
2022-12-22T15:21:41.520Z,11.90
2022-12-22T15:24:12.130Z,12.30
2022-12-22T15:26:40.802Z,14.00
2022-12-22T15:29:09.339Z,12.60
2022-12-22T15:31:38.806Z,13.88
2022-12-22T15:34:12.240Z,14.65
2022-12-22T15:36:40.692Z,14.68
2022-12-22T15:39:14.353Z,15.38
2022-12-22T15:41:42.918Z,18.95
2022-12-22T15:44:11.412Z,13.52
2022-12-22T15:46:40.625Z,17.58
2022-12-22T15:49:14.708Z,13.70
2022-12-22T15:51:43.216Z,16.27
2022-12-22T15:54:13.344Z,15.25
2022-12-22T15:56:41.731Z,14.73
2022-12-22T15:59:12.995Z,19.25
2022-12-22T16:01:41.495Z,14.70
2022-12-22T16:04:11.411Z,18.23
2022-12-22T16:06:40.050Z,18.30
2022-12-22T16:09:10.176Z,19.33
2022-12-22T16:11:40.043Z,17.88
2022-12-22T16:14:08.480Z,17.65
2022-12-22T16:16:36.897Z,17.40
2022-12-22T16:19:05.350Z,18.70
2022-12-22T16:21:35.119Z,19.65
2022-12-22T16:24:04.757Z,21.27
2022-12-22T16:26:33.154Z,25.80
2022-12-22T16:29:01.544Z,23.25
2022-12-22T16:31:29.967Z,23.35
2022-12-22T16:33:58.410Z,30.63
2022-12-22T16:36:26.842Z,24.00
2022-12-22T16:38:56.575Z,22.77
2022-12-22T16:41:26.308Z,19.83
2022-12-22T16:46:41.332Z,20.60
2022-12-22T16:49:10.517Z,21.27
2022-12-22T16:51:40.846Z,19.73
2022-12-22T16:54:14.638Z,20.40
2022-12-22T16:56:43.338Z,19.27
2022-12-22T16:59:11.739Z,20.90
2022-12-22T17:01:41.783Z,18.80
2022-12-22T17:04:11.928Z,22.23
2022-12-22T17:06:41.059Z,21.27
2022-12-22T17:09:13.451Z,22.42
2022-12-22T17:11:41.890Z,19.38
2022-12-22T17:14:17.128Z,19.02
2022-12-22T17:16:45.527Z,21.58
2022-12-22T17:19:13.873Z,21.50
2022-12-22T17:21:42.296Z,19.42
2022-12-22T17:24:14.817Z,18.48
2022-12-22T17:26:43.763Z,20.00
2022-12-22T17:29:15.056Z,17.05
2022-12-22T17:31:43.498Z,22.65
2022-12-22T17:34:16.751Z,19.05
2022-12-22T17:36:46.488Z,16.27
2022-12-22T17:39:17.278Z,19.63
2022-12-22T17:41:49.039Z,14.10
2022-12-22T17:44:24.110Z,17.20
2022-12-22T17:46:52.644Z,17.70
2022-12-22T17:49:22.535Z,18.30
2022-12-22T17:51:51.513Z,17.20
2022-12-22T17:54:23.212Z,16.98
2022-12-22T17:56:51.850Z,18.77
2022-12-22T17:59:20.313Z,19.90
2022-12-22T18:01:48.825Z,18.48
2022-12-22T18:04:17.373Z,22.10
2022-12-22T18:06:46.040Z,18.88
2022-12-22T18:09:20.082Z,19.45
2022-12-22T18:11:50.220Z,18.77
2022-12-22T18:14:18.808Z,22.08
2022-12-22T18:16:47.704Z,19.60
2022-12-22T18:19:16.223Z,22.05
2022-12-22T18:21:45.439Z,17.60
2022-12-22T18:24:17.376Z,23.15
2022-12-22T18:26:47.037Z,24.60
2022-12-22T18:29:17.409Z,23.00
2022-12-22T18:31:45.941Z,25.08
2022-12-22T18:34:14.675Z,19.70
2022-12-22T18:36:45.531Z,24.02
2022-12-22T18:39:17.983Z,21.77
2022-12-22T18:41:46.557Z,20.08
2022-12-22T18:44:18.851Z,20.85
2022-12-22T18:46:48.760Z,19.83
2022-12-22T18:49:17.788Z,22.75
2022-12-22T18:51:46.831Z,18.80
2022-12-22T18:54:22.825Z,18.17
2022-12-22T18:56:51.239Z,18.52
2022-12-22T18:59:25.813Z,16.25
2022-12-22T19:01:54.547Z,15.73
2022-12-22T19:04:23.902Z,15.75
2022-12-22T19:06:52.336Z,19.30
2022-12-22T19:09:23.273Z,16.40
2022-12-22T19:11:51.768Z,15.13
2022-12-22T19:14:21.023Z,19.63
2022-12-22T19:16:51.026Z,14.98
2022-12-22T19:19:20.056Z,17.40
2022-12-22T19:21:49.510Z,18.13
2022-12-22T19:24:18.133Z,22.92
2022-12-22T19:26:46.544Z,19.70
2022-12-22T19:29:18.263Z,15.73
2022-12-22T19:31:46.857Z,19.08
2022-12-22T19:34:21.877Z,18.23
2022-12-22T19:36:50.318Z,17.17
2022-12-22T19:39:19.080Z,16.90
2022-12-22T19:41:48.629Z,21.90
2022-12-22T19:44:21.676Z,20.58
2022-12-22T19:46:50.274Z,19.73
2022-12-22T19:49:21.174Z,21.25
2022-12-22T19:51:50.129Z,20.23
2022-12-22T19:54:19.479Z,22.70
2022-12-22T19:56:49.402Z,21.70
2022-12-22T19:59:26.998Z,29.13
2022-12-22T20:01:58.707Z,23.38
2022-12-22T20:04:28.801Z,22.90
2022-12-22T20:06:57.341Z,20.45
2022-12-22T20:09:25.900Z,24.92
2022-12-22T20:11:54.492Z,22.98
2022-12-22T20:14:22.938Z,29.33
2022-12-22T20:16:51.501Z,22.80
2022-12-22T20:19:19.981Z,21.25
2022-12-22T20:21:49.793Z,24.20
2022-12-22T20:24:22.165Z,28.23
2022-12-22T20:26:54.546Z,27.38
2022-12-22T20:29:23.923Z,32.85
2022-12-22T20:31:52.696Z,23.40
2022-12-22T20:34:21.191Z,31.63
2022-12-22T20:36:51.115Z,27.85
2022-12-22T20:39:20.468Z,33.13
2022-12-22T20:41:53.319Z,37.05
2022-12-22T20:44:22.276Z,30.33
2022-12-22T20:46:51.140Z,32.72
2022-12-22T20:49:19.735Z,35.90
2022-12-22T20:51:48.152Z,36.25
2022-12-22T20:54:18.436Z,42.08
2022-12-22T20:56:47.487Z,40.20
2022-12-22T20:59:17.383Z,41.90
2022-12-22T21:01:46.571Z,38.95
2022-12-22T21:04:15.416Z,41.00
2022-12-22T21:06:47.223Z,46.97
2022-12-22T21:09:16.284Z,39.47
2022-12-22T21:11:46.296Z,37.05
2022-12-22T21:14:15.193Z,41.47
2022-12-22T21:16:44.524Z,39.13
2022-12-22T21:19:17.349Z,40.90
2022-12-22T21:21:46.591Z,36.67
2022-12-22T21:24:15.190Z,35.78
2022-12-22T21:26:45.445Z,39.90
2022-12-22T21:29:17.541Z,44.05
2022-12-22T21:31:45.980Z,32.45
2022-12-22T21:34:16.239Z,33.47
2022-12-22T21:36:45.863Z,31.30
2022-12-22T21:39:17.998Z,33.38
2022-12-22T21:42:02.033Z,33.35
2022-12-22T21:44:32.503Z,31.33
2022-12-22T21:47:01.195Z,24.88
2022-12-22T21:49:30.764Z,21.23
2022-12-22T21:51:59.334Z,23.45
2022-12-22T21:54:30.715Z,20.45
2022-12-22T21:56:59.184Z,24.70
2022-12-22T21:59:27.633Z,28.08
2022-12-22T22:01:57.988Z,24.50
2022-12-22T22:04:26.638Z,25.70
2022-12-22T22:06:55.126Z,27.52
2022-12-22T22:09:23.652Z,27.50
2022-12-22T22:12:09.555Z,22.38
2022-12-22T22:14:38.211Z,19.77
2022-12-22T22:17:08.003Z,21.33
2022-12-22T22:19:36.609Z,21.02
2022-12-22T22:22:07.307Z,19.08
2022-12-22T22:24:36.341Z,19.52
2022-12-22T22:27:04.925Z,23.45
2022-12-22T22:29:33.359Z,25.90
2022-12-22T22:32:01.769Z,21.85
2022-12-22T22:34:31.842Z,22.63
2022-12-22T22:37:00.283Z,22.80
2022-12-22T22:39:28.742Z,27.92
2022-12-22T22:41:57.141Z,28.65
2022-12-22T22:44:25.555Z,27.05
2022-12-22T22:46:54.131Z,21.25
2022-12-22T22:49:28.109Z,19.42
2022-12-22T22:51:59.379Z,19.50
2022-12-22T22:54:27.821Z,23.25
2022-12-22T22:56:56.431Z,22.83
2022-12-22T22:59:24.887Z,22.15
2022-12-22T23:01:55.635Z,21.17
2022-12-22T23:04:24.165Z,20.45
2022-12-22T23:06:53.624Z,25.38
2022-12-22T23:09:23.592Z,26.27
2022-12-22T23:11:53.321Z,22.00
2022-12-22T23:14:21.794Z,23.58
2022-12-22T23:16:50.364Z,18.42
2022-12-22T23:19:19.014Z,16.02
2022-12-22T23:21:47.808Z,19.27
2022-12-22T23:24:17.583Z,18.77
2022-12-22T23:26:47.385Z,17.38
2022-12-22T23:29:15.829Z,15.07
2022-12-22T23:31:44.371Z,13.25
2022-12-22T23:34:12.952Z,20.83
2022-12-22T23:36:41.480Z,18.95
2022-12-22T23:39:10.101Z,17.33
2022-12-22T23:41:38.592Z,16.58
2022-12-22T23:44:08.483Z,19.23
2022-12-22T23:46:37.028Z,14.85
2022-12-22T23:49:07.477Z,14.82
2022-12-22T23:51:35.927Z,16.05
2022-12-22T23:54:04.388Z,14.93
2022-12-22T23:56:33.038Z,13.73
2022-12-22T23:59:01.468Z,16.20
